Terminal Aerodrome Forecast
Issued by NWS Pocatello, ID

Home | Current Version | Previous Version | Text Only | Print | Product List | Glossary On
Versions: 1 2 3 4 5 6 7 8 9 10 11 12 13 14 15 16 17 18 19 20 21 22 23
052
FTUS45 KPIH 130521
TAFBYI
TAF
KBYI 130521Z 1306/1406 VRB05KT 1/2SM FZFG VV002
      TEMPO 1306/1310 1SM BR
     FM131900 VRB05KT P6SM BKN150=

USA.gov is the U.S. government's official web portal to all federal, state and local government web resources and services.